Time;durP1;ratioP1;P1;durP2;ratioP2;P2;SDS_P1;SDS_P2;PMS_P1;PMS_P2;Temp;Humidity;BMP_temperature;BMP_pressure;BME280_temperature;BME280_humidity;BME280_pressure;Samples;Min_cycle;Max_cycle;Signal;HPM_P1;HPM_P2
2023/03/03 00:02:09;;;;;;;24.40;10.45;;;;;;;;;;5045262;28;20124;-49
2023/03/03 00:04:34;;;;;;;23.38;10.88;;;;;;;;;;5045660;28;20013;-49
2023/03/03 00:07:00;;;;;;;31.25;11.07;;;;;;;;;;5045493;28;20202;-49
2023/03/03 00:09:25;;;;;;;26.00;11.43;;;;;;;;;;5044952;28;20057;-47
2023/03/03 00:11:55;;;;;;;30.83;12.30;;;;;;;;;;5045218;28;20029;-46
2023/03/03 00:14:39;;;;;;;31.83;12.18;;;;;;;;;;5044724;28;20041;-46
2023/03/03 00:17:27;;;;;;;27.52;10.35;;;;;;;;;;5024452;28;20404;-46
2023/03/03 00:19:52;;;;;;;33.58;11.82;;;;;;;;;;5036503;28;20122;-46
2023/03/03 00:22:36;;;;;;;28.00;11.30;;;;;;;;;;5045465;28;20063;-48
2023/03/03 00:25:28;;;;;;;31.55;10.60;;;;;;;;;;5037468;28;20036;-48
2023/03/03 00:27:54;;;;;;;28.25;12.00;;;;;;;;;;5023969;28;20088;-49
2023/03/03 00:30:24;;;;;;;22.75;9.77;;;;;;;;;;5024981;28;20041;-46
2023/03/03 00:32:51;;;;;;;27.65;10.70;;;;;;;;;;5023588;28;20057;-48
2023/03/03 00:35:30;;;;;;;29.98;10.68;;;;;;;;;;5025002;28;20030;-47
2023/03/03 00:38:00;;;;;;;24.33;10.95;;;;;;;;;;5024199;28;20101;-45
2023/03/03 00:40:36;;;;;;;24.63;9.93;;;;;;;;;;5023259;28;20411;-48
2023/03/03 00:43:11;;;;;;;21.17;10.00;;;;;;;;;;5024999;28;20483;-46
2023/03/03 00:45:44;;;;;;;25.13;10.90;;;;;;;;;;5024678;28;20557;-46
2023/03/03 00:48:21;;;;;;;;;;;;;;;;;;5024030;28;20036;-47
2023/03/03 00:50:47;;;;;;;28.95;12.00;;;;;;;;;;5024772;28;19913;-45
2023/03/03 00:53:17;;;;;;;32.22;11.88;;;;;;;;;;5025105;28;20040;-48
2023/03/03 00:55:44;;;;;;;20.33;8.55;;;;;;;;;;5023695;28;20499;-47
2023/03/03 00:58:10;;;;;;;23.35;9.85;;;;;;;;;;5024005;28;20052;-48
2023/03/03 01:00:35;;;;;;;23.45;10.00;;;;;;;;;;5024167;28;20111;-47
2023/03/03 01:03:04;;;;;;;26.45;11.00;;;;;;;;;;5024781;28;20512;-49
2023/03/03 01:05:30;;;;;;;22.80;9.13;;;;;;;;;;5024061;28;20048;-47
2023/03/03 01:07:55;;;;;;;28.42;10.68;;;;;;;;;;5024923;28;20538;-47
2023/03/03 01:10:20;;;;;;;31.52;11.73;;;;;;;;;;5024416;28;20049;-46
2023/03/03 01:12:45;;;;;;;28.15;10.13;;;;;;;;;;5024610;28;20663;-47
2023/03/03 01:15:13;;;;;;;21.85;9.57;;;;;;;;;;5023054;28;20113;-45
2023/03/03 01:17:38;;;;;;;25.95;9.82;;;;;;;;;;5024868;28;20137;-45
2023/03/03 01:20:06;;;;;;;21.25;8.48;;;;;;;;;;5037685;28;20210;-46
2023/03/03 01:22:31;;;;;;;33.33;10.30;;;;;;;;;;5044546;28;20021;-46
2023/03/03 01:24:56;;;;;;;26.25;10.13;;;;;;;;;;5044429;28;20036;-46
2023/03/03 01:27:22;;;;;;;24.95;9.73;;;;;;;;;;5044187;28;20040;-46
2023/03/03 01:29:47;;;;;;;30.15;11.32;;;;;;;;;;5038667;28;20040;-50
2023/03/03 01:32:12;;;;;;;27.55;10.18;;;;;;;;;;5011110;28;20030;-51
2023/03/03 01:34:37;;;;;;;22.17;9.93;;;;;;;;;;5005367;28;20760;-51
2023/03/03 01:37:03;;;;;;;19.55;8.68;;;;;;;;;;5008882;28;20034;-51
2023/03/03 01:39:28;;;;;;;27.10;11.07;;;;;;;;;;5008498;28;20061;-50
2023/03/03 01:41:54;;;;;;;22.98;9.77;;;;;;;;;;5008215;28;20539;-52
2023/03/03 01:44:19;;;;;;;21.08;9.93;;;;;;;;;;5020184;28;20045;-49
2023/03/03 01:47:02;;;;;;;26.85;9.82;;;;;;;;;;5027159;28;20022;-50
2023/03/03 01:49:32;;;;;;;26.05;9.43;;;;;;;;;;5027610;28;20064;-52
2023/03/03 01:52:01;;;;;;;27.92;9.80;;;;;;;;;;5027862;28;20041;-45
2023/03/03 01:54:37;;;;;;;23.50;9.55;;;;;;;;;;5013256;28;20514;-49
2023/03/03 01:57:07;;;;;;;28.95;10.88;;;;;;;;;;5007563;28;20119;-50
2023/03/03 01:59:39;;;;;;;24.15;8.60;;;;;;;;;;5007982;28;20038;-46
2023/03/03 02:02:06;;;;;;;24.13;11.20;;;;;;;;;;5031522;28;20045;-48
2023/03/03 02:04:34;;;;;;;22.67;9.00;;;;;;;;;;5026876;28;20031;-52
2023/03/03 02:07:05;;;;;;;19.42;7.85;;;;;;;;;;5027738;28;20025;-49
2023/03/03 02:09:58;;;;;;;22.88;9.25;;;;;;;;;;5026765;28;20037;-47
2023/03/03 02:13:02;;;;;;;24.20;9.83;;;;;;;;;;5024477;28;20069;-48
2023/03/03 02:15:31;;;;;;;23.58;9.68;;;;;;;;;;4985577;28;20325;-49
2023/03/03 02:18:02;;;;;;;30.15;9.88;;;;;;;;;;4984155;28;20077;-46
2023/03/03 02:20:45;;;;;;;31.13;11.60;;;;;;;;;;5006469;28;20422;-50
2023/03/03 02:23:22;;;;;;;20.83;8.90;;;;;;;;;;5027792;28;20045;-46
2023/03/03 02:25:55;;;;;;;26.83;9.30;;;;;;;;;;5027084;28;20530;-47
2023/03/03 02:28:29;;;;;;;25.58;8.68;;;;;;;;;;5027080;28;20025;-48
2023/03/03 02:30:56;;;;;;;26.65;10.15;;;;;;;;;;5025287;28;20061;-46
2023/03/03 02:33:22;;;;;;;29.15;10.90;;;;;;;;;;5026349;28;20542;-47
2023/03/03 02:35:48;;;;;;;19.52;8.20;;;;;;;;;;5026571;28;20029;-46
2023/03/03 02:38:22;;;;;;;29.10;9.63;;;;;;;;;;5026547;28;20026;-46
2023/03/03 02:41:20;;;;;;;32.28;12.63;;;;;;;;;;5026775;28;20092;-46
2023/03/03 02:43:52;;;;;;;21.42;9.15;;;;;;;;;;5026883;28;20176;-46
2023/03/03 02:46:18;;;;;;;28.38;10.18;;;;;;;;;;5025634;28;20031;-46
2023/03/03 02:48:43;;;;;;;24.33;9.93;;;;;;;;;;5026896;28;20029;-44
2023/03/03 02:51:09;;;;;;;25.27;10.75;;;;;;;;;;5026493;28;20419;-46
2023/03/03 02:53:34;;;;;;;24.60;9.15;;;;;;;;;;5017771;28;20038;-45
2023/03/03 02:56:00;;;;;;;27.83;10.65;;;;;;;;;;5006442;28;20391;-45
2023/03/03 02:58:25;;;;;;;27.92;10.45;;;;;;;;;;5007331;28;20029;-47
2023/03/03 03:00:50;;;;;;;34.08;9.55;;;;;;;;;;5009147;28;20057;-46
2023/03/03 03:03:16;;;;;;;37.65;12.15;;;;;;;;;;5006523;28;20106;-47
2023/03/03 03:05:41;;;;;;;23.30;9.40;;;;;;;;;;5006349;28;20037;-49
2023/03/03 03:08:06;;;;;;;29.15;11.25;;;;;;;;;;5006799;28;20034;-46
2023/03/03 03:10:31;;;;;;;27.17;10.10;;;;;;;;;;5006920;28;20040;-45
2023/03/03 03:12:57;;;;;;;32.40;11.35;;;;;;;;;;5006102;28;20425;-46
2023/03/03 03:15:22;;;;;;;24.48;9.88;;;;;;;;;;5015901;28;20507;-48
2023/03/03 03:17:48;;;;;;;38.00;14.35;;;;;;;;;;5023926;28;20723;-46
2023/03/03 03:20:14;;;;;;;25.92;10.73;;;;;;;;;;5023663;28;20337;-45
2023/03/03 03:22:39;;;;;;;27.67;10.80;;;;;;;;;;5020737;28;20025;-51
2023/03/03 03:25:05;;;;;;;25.63;10.23;;;;;;;;;;5025788;28;20030;-51
2023/03/03 03:27:31;;;;;;;29.10;10.88;;;;;;;;;;5026087;28;20099;-49
2023/03/03 03:29:56;;;;;;;32.38;12.38;;;;;;;;;;5026373;28;20030;-50
2023/03/03 03:32:21;;;;;;;30.42;12.57;;;;;;;;;;5021515;28;20049;-51
2023/03/03 03:34:47;;;;;;;45.78;15.85;;;;;;;;;;5026069;28;20021;-48
2023/03/03 03:37:12;;;;;;;50.05;17.25;;;;;;;;;;5026030;28;20655;-51
2023/03/03 03:39:37;;;;;;;46.58;16.45;;;;;;;;;;5025426;28;20576;-50
2023/03/03 03:42:03;;;;;;;54.60;18.52;;;;;;;;;;5025955;28;20087;-52
2023/03/03 03:44:28;;;;;;;27.42;11.43;;;;;;;;;;5025435;28;20037;-51
2023/03/03 03:46:53;;;;;;;53.58;15.70;;;;;;;;;;5025675;28;20036;-48
2023/03/03 03:49:19;;;;;;;36.50;13.23;;;;;;;;;;5025481;28;20476;-49
2023/03/03 03:51:44;;;;;;;39.30;13.60;;;;;;;;;;5025422;28;20057;-49
2023/03/03 03:54:09;;;;;;;46.65;15.77;;;;;;;;;;5023827;28;20033;-46
2023/03/03 03:56:35;;;;;;;32.53;12.05;;;;;;;;;;5020485;28;20041;-46
2023/03/03 03:59:00;;;;;;;30.80;11.48;;;;;;;;;;5025125;28;20426;-47
2023/03/03 04:01:25;;;;;;;25.38;9.40;;;;;;;;;;5025752;28;20079;-49
2023/03/03 04:03:51;;;;;;;37.83;12.48;;;;;;;;;;5026863;28;20600;-47
2023/03/03 04:06:16;;;;;;;40.38;13.30;;;;;;;;;;5044797;28;20032;-45
2023/03/03 04:08:42;;;;;;;36.40;13.63;;;;;;;;;;5045152;28;20033;-46
2023/03/03 04:11:07;;;;;;;33.90;11.98;;;;;;;;;;5033697;28;20112;-47
2023/03/03 04:13:34;;;;;;;45.58;16.67;;;;;;;;;;5027020;28;20056;-49
2023/03/03 04:16:00;;;;;;;34.25;12.98;;;;;;;;;;5029845;28;20084;-49
2023/03/03 04:18:25;;;;;;;42.10;14.35;;;;;;;;;;5024609;28;20729;-46
2023/03/03 04:20:53;;;;;;;42.13;13.82;;;;;;;;;;5025777;28;20025;-50
2023/03/03 04:23:18;;;;;;;58.40;18.77;;;;;;;;;;5024250;28;20124;-46
2023/03/03 04:25:45;;;;;;;48.17;16.58;;;;;;;;;;5025069;28;20124;-47
2023/03/03 04:28:11;;;;;;;41.10;13.18;;;;;;;;;;5024801;28;20088;-47
2023/03/03 04:30:36;;;;;;;48.25;14.18;;;;;;;;;;5024478;28;20052;-48
2023/03/03 04:33:01;;;;;;;22.88;9.70;;;;;;;;;;5024905;28;20113;-46
2023/03/03 04:35:27;;;;;;;53.47;18.48;;;;;;;;;;5024228;28;20515;-45
2023/03/03 04:37:52;;;;;;;49.65;16.92;;;;;;;;;;5024689;28;20033;-45
2023/03/03 04:40:18;;;;;;;41.92;15.43;;;;;;;;;;5025279;28;20564;-46
2023/03/03 04:42:43;;;;;;;33.75;12.82;;;;;;;;;;5018329;28;20040;-47
2023/03/03 04:45:09;;;;;;;41.33;16.10;;;;;;;;;;5024396;28;20369;-49
2023/03/03 04:47:35;;;;;;;44.60;14.75;;;;;;;;;;5024861;28;20030;-47
2023/03/03 04:50:00;;;;;;;46.67;15.57;;;;;;;;;;5024949;28;20036;-47
2023/03/03 04:52:25;;;;;;;42.00;14.05;;;;;;;;;;5024985;28;20025;-50
2023/03/03 04:54:51;;;;;;;47.72;17.05;;;;;;;;;;5024718;28;20048;-47
2023/03/03 04:57:16;;;;;;;46.42;15.15;;;;;;;;;;5024616;28;20116;-48
2023/03/03 04:59:41;;;;;;;43.95;14.98;;;;;;;;;;5024318;28;20040;-47
2023/03/03 05:02:06;;;;;;;45.15;15.27;;;;;;;;;;5024738;28;20666;-47
2023/03/03 05:04:32;;;;;;;45.58;16.30;;;;;;;;;;5023351;28;20017;-46
2023/03/03 05:06:57;;;;;;;34.83;13.00;;;;;;;;;;5024781;28;20037;-46
2023/03/03 05:09:22;;;;;;;45.10;16.65;;;;;;;;;;5025500;28;20038;-46
2023/03/03 05:11:48;;;;;;;43.30;14.90;;;;;;;;;;5036995;28;20029;-47
2023/03/03 05:14:13;;;;;;;31.95;13.80;;;;;;;;;;5047681;28;20179;-48
2023/03/03 05:16:39;;;;;;;42.05;13.88;;;;;;;;;;5028643;28;20053;-46
2023/03/03 05:19:04;;;;;;;37.45;13.27;;;;;;;;;;5033195;28;20029;-48
2023/03/03 05:21:30;;;;;;;38.53;13.18;;;;;;;;;;5048457;28;20040;-47
2023/03/03 05:23:55;;;;;;;39.95;14.13;;;;;;;;;;5047766;28;20025;-46
2023/03/03 05:26:21;;;;;;;47.53;13.88;;;;;;;;;;5048423;28;20518;-46
2023/03/03 05:28:46;;;;;;;23.98;10.13;;;;;;;;;;5036481;28;20025;-47
2023/03/03 05:31:11;;;;;;;36.88;12.43;;;;;;;;;;5025452;28;20034;-48
2023/03/03 05:33:37;;;;;;;40.90;14.10;;;;;;;;;;5028025;28;20033;-47
2023/03/03 05:36:02;;;;;;;42.03;15.40;;;;;;;;;;5027823;28;20151;-47
2023/03/03 05:38:28;;;;;;;34.58;12.32;;;;;;;;;;5024838;28;20451;-46
2023/03/03 05:40:54;;;;;;;35.42;12.05;;;;;;;;;;5027933;28;20029;-45
2023/03/03 05:43:19;;;;;;;25.15;9.50;;;;;;;;;;5027882;28;20083;-46
2023/03/03 05:45:45;;;;;;;27.50;11.77;;;;;;;;;;5027995;28;20057;-45
2023/03/03 05:48:10;;;;;;;41.50;14.75;;;;;;;;;;5027553;28;20116;-47
2023/03/03 05:50:37;;;;;;;48.65;15.30;;;;;;;;;;5026786;28;20037;-47
2023/03/03 05:53:02;;;;;;;42.15;13.00;;;;;;;;;;5027212;28;20022;-45
2023/03/03 05:55:28;;;;;;;38.55;14.32;;;;;;;;;;5028109;28;20036;-47
2023/03/03 05:57:54;;;;;;;18.15;8.38;;;;;;;;;;5027920;28;20206;-46
2023/03/03 06:00:19;;;;;;;35.08;12.52;;;;;;;;;;5027656;28;20041;-47
2023/03/03 06:02:45;;;;;;;36.92;13.75;;;;;;;;;;5023634;28;20026;-47
2023/03/03 06:05:10;;;;;;;33.85;11.98;;;;;;;;;;5023331;28;20033;-45
2023/03/03 06:07:36;;;;;;;29.08;10.60;;;;;;;;;;5027897;28;20076;-46
2023/03/03 06:10:02;;;;;;;41.03;15.20;;;;;;;;;;5026023;28;20079;-47
2023/03/03 06:12:28;;;;;;;36.60;13.75;;;;;;;;;;5027225;28;20601;-46
2023/03/03 06:14:53;;;;;;;25.13;10.50;;;;;;;;;;5027658;28;20033;-47
2023/03/03 06:17:18;;;;;;;36.55;12.10;;;;;;;;;;5013151;28;20065;-47
2023/03/03 06:19:44;;;;;;;29.33;11.48;;;;;;;;;;5028618;28;20021;-45
2023/03/03 06:22:09;;;;;;;32.67;11.13;;;;;;;;;;5046759;28;20041;-47
2023/03/03 06:24:34;;;;;;;27.77;10.77;;;;;;;;;;5047552;28;20521;-47
2023/03/03 06:27:00;;;;;;;39.88;12.57;;;;;;;;;;5023424;28;20080;-47
2023/03/03 06:29:27;;;;;;;28.85;10.88;;;;;;;;;;5027579;28;20037;-48
2023/03/03 06:31:52;;;;;;;33.65;12.05;;;;;;;;;;5023870;28;20091;-47
2023/03/03 06:34:18;;;;;;;31.85;11.77;;;;;;;;;;5026589;28;20025;-46
2023/03/03 06:36:44;;;;;;;39.15;13.55;;;;;;;;;;5027198;28;20044;-49
2023/03/03 06:39:09;;;;;;;21.45;8.20;;;;;;;;;;5026403;28;20030;-49
2023/03/03 06:41:35;;;;;;;31.73;10.30;;;;;;;;;;5022188;28;20037;-51
2023/03/03 06:44:00;;;;;;;30.33;10.60;;;;;;;;;;5024516;28;20013;-49
2023/03/03 06:46:26;;;;;;;30.38;10.88;;;;;;;;;;5015938;28;20042;-52
2023/03/03 06:48:52;;;;;;;32.60;12.07;;;;;;;;;;5012201;28;20498;-49
2023/03/03 06:51:29;;;;;;;32.78;11.18;;;;;;;;;;5026422;28;20013;-47
2023/03/03 06:53:56;;;;;;;18.83;9.52;;;;;;;;;;5026065;28;20045;-48
2023/03/03 06:56:26;;;;;;;22.65;9.63;;;;;;;;;;5012737;28;20455;-50
2023/03/03 06:59:02;;;;;;;33.38;10.63;;;;;;;;;;5026994;28;20036;-49
2023/03/03 07:01:34;;;;;;;28.98;9.65;;;;;;;;;;5026403;28;20030;-52
2023/03/03 07:03:59;;;;;;;35.72;12.57;;;;;;;;;;5025428;28;20044;-48
2023/03/03 07:06:27;;;;;;;29.77;10.07;;;;;;;;;;5027418;28;20437;-47
2023/03/03 07:08:53;;;;;;;32.83;11.32;;;;;;;;;;5025110;28;20128;-47
2023/03/03 07:11:21;;;;;;;20.13;9.23;;;;;;;;;;5023646;28;20111;-48
2023/03/03 07:13:49;;;;;;;22.65;8.50;;;;;;;;;;5016069;28;20068;-49
2023/03/03 07:16:16;;;;;;;31.67;13.70;;;;;;;;;;5021418;28;20037;-49
2023/03/03 07:18:49;;;;;;;23.05;8.85;;;;;;;;;;5029393;28;20033;-47
2023/03/03 07:21:21;;;;;;;42.33;9.32;;;;;;;;;;5037131;28;20017;-48
2023/03/03 07:23:52;;;;;;;37.92;11.35;;;;;;;;;;5024836;28;20049;-47
2023/03/03 07:26:29;;;;;;;31.55;11.85;;;;;;;;;;5026322;28;20515;-45
2023/03/03 07:29:01;;;;;;;35.92;11.98;;;;;;;;;;5026948;28;20510;-47
2023/03/03 07:31:32;;;;;;;46.87;13.70;;;;;;;;;;5026513;28;20087;-47
2023/03/03 07:33:59;;;;;;;42.03;14.27;;;;;;;;;;5024639;28;20078;-49
2023/03/03 07:36:27;;;;;;;27.58;9.63;;;;;;;;;;5026743;28;20535;-49
2023/03/03 07:38:55;;;;;;;27.13;10.00;;;;;;;;;;5025695;28;20786;-46
2023/03/03 07:41:24;;;;;;;31.05;9.90;;;;;;;;;;5025942;28;20033;-47
2023/03/03 07:44:18;;;;;;;27.40;11.50;;;;;;;;;;5026132;28;20021;-49
2023/03/03 07:46:47;;;;;;;43.65;12.13;;;;;;;;;;5019745;28;20529;-47
2023/03/03 07:49:29;;;;;;;28.90;9.43;;;;;;;;;;5025985;28;20029;-46
2023/03/03 07:51:56;;;;;;;20.40;8.85;;;;;;;;;;5026153;28;20025;-48
2023/03/03 07:54:36;;;;;;;27.40;10.18;;;;;;;;;;5026774;28;20026;-51
2023/03/03 07:57:12;;;;;;;33.22;9.63;;;;;;;;;;5024417;28;20025;-49
2023/03/03 07:59:44;;;;;;;32.17;12.13;;;;;;;;;;5021056;28;20060;-48
2023/03/03 08:02:55;;;;;;;29.83;9.88;;;;;;;;;;5015762;28;20398;-46
2023/03/03 08:05:28;;;;;;;26.73;11.77;;;;;;;;;;5000885;28;20322;-48
2023/03/03 08:08:09;;;;;;;35.08;11.82;;;;;;;;;;5029055;28;20253;-51
2023/03/03 08:10:47;;;;;;;41.28;14.98;;;;;;;;;;5039618;28;20040;-46
2023/03/03 08:13:23;;;;;;;31.90;11.10;;;;;;;;;;5023389;28;20045;-46
2023/03/03 08:15:52;;;;;;;22.35;8.65;;;;;;;;;;5025112;28;20410;-49
2023/03/03 08:18:28;;;;;;;16.02;7.65;;;;;;;;;;5027156;28;20029;-47
2023/03/03 08:20:57;;;;;;;25.75;9.02;;;;;;;;;;5006248;28;20049;-46
2023/03/03 08:23:23;;;;;;;9.30;5.22;;;;;;;;;;5021059;28;20049;-48
2023/03/03 08:25:50;;;;;;;24.50;9.90;;;;;;;;;;5025030;28;20522;-46
2023/03/03 08:28:16;;;;;;;24.85;9.13;;;;;;;;;;5023849;28;20159;-47
2023/03/03 08:30:42;;;;;;;27.08;8.93;;;;;;;;;;5016827;28;20108;-48
2023/03/03 08:33:08;;;;;;;26.52;10.98;;;;;;;;;;5024323;28;20032;-50
2023/03/03 08:35:33;;;;;;;27.92;10.10;;;;;;;;;;5023811;28;20037;-48
2023/03/03 08:37:59;;;;;;;29.55;11.65;;;;;;;;;;5024946;28;20211;-48
2023/03/03 08:40:24;;;;;;;28.60;10.63;;;;;;;;;;5023163;28;20041;-47
2023/03/03 08:42:50;;;;;;;30.35;9.40;;;;;;;;;;5024878;28;20664;-49
2023/03/03 08:45:15;;;;;;;33.95;11.15;;;;;;;;;;5028071;28;20028;-46
2023/03/03 08:47:42;;;;;;;21.98;8.90;;;;;;;;;;5026891;28;20064;-48
2023/03/03 08:50:08;;;;;;;30.15;10.77;;;;;;;;;;5008611;28;20039;-48
2023/03/03 08:52:33;;;;;;;26.25;9.52;;;;;;;;;;5008405;28;20087;-51
2023/03/03 08:54:59;;;;;;;27.85;11.05;;;;;;;;;;5007778;28;20784;-47
2023/03/03 08:57:24;;;;;;;28.67;10.00;;;;;;;;;;5013409;28;20132;-49
2023/03/03 08:59:49;;;;;;;24.70;9.95;;;;;;;;;;5043067;28;20562;-49
2023/03/03 09:02:16;;;;;;;23.05;8.80;;;;;;;;;;5048295;28;20083;-48
2023/03/03 09:04:41;;;;;;;25.98;9.02;;;;;;;;;;5047952;28;20055;-50
2023/03/03 09:07:09;;;;;;;25.40;8.88;;;;;;;;;;5047208;28;20762;-46
2023/03/03 09:09:36;;;;;;;21.60;7.78;;;;;;;;;;5048118;28;20103;-50
2023/03/03 09:12:13;;;;;;;24.52;7.38;;;;;;;;;;5026556;28;20038;-48
2023/03/03 09:14:38;;;;;;;15.80;6.07;;;;;;;;;;5026828;28;20072;-49
2023/03/03 09:17:22;;;;;;;20.67;8.52;;;;;;;;;;5026219;28;20072;-47
2023/03/03 09:19:47;;;;;;;;;;;;;;;;;;5030629;28;20123;-48
2023/03/03 09:22:22;;;;;;;22.10;7.63;;;;;;;;;;5049005;28;20505;-48
2023/03/03 09:24:49;;;;;;;22.58;7.55;;;;;;;;;;5046097;28;20506;-49
2023/03/03 09:27:28;;;;;;;24.00;9.70;;;;;;;;;;5028523;28;20120;-46
2023/03/03 09:29:54;;;;;;;27.23;9.15;;;;;;;;;;5027082;28;20040;-46
2023/03/03 09:32:33;;;;;;;24.27;8.75;;;;;;;;;;5035654;28;20036;-52
2023/03/03 09:34:59;;;;;;;18.67;7.38;;;;;;;;;;5046251;28;20045;-46
2023/03/03 09:37:35;;;;;;;19.08;8.45;;;;;;;;;;5030134;28;20052;-48
2023/03/03 09:40:34;;;;;;;22.75;7.32;;;;;;;;;;5025287;28;20044;-46
2023/03/03 09:43:15;;;;;;;23.52;8.80;;;;;;;;;;5027166;28;20168;-49
2023/03/03 09:45:57;;;;;;;23.10;9.88;;;;;;;;;;5027305;28;20033;-46
2023/03/03 09:48:41;;;;;;;25.48;9.75;;;;;;;;;;5029035;28;20068;-49
2023/03/03 09:51:23;;;;;;;21.92;8.50;;;;;;;;;;5023454;28;20657;-47
2023/03/03 09:54:11;;;;;;;30.17;11.10;;;;;;;;;;5028210;28;20522;-49
2023/03/03 09:56:43;;;;;;;24.63;10.32;;;;;;;;;;5027020;28;20824;-48
2023/03/03 09:59:34;;;;;;;30.63;11.10;;;;;;;;;;5028185;28;20716;-50
2023/03/03 10:02:19;;;;;;;23.63;9.27;;;;;;;;;;5022673;28;20033;-50
2023/03/03 10:05:12;;;;;;;18.60;6.65;;;;;;;;;;5015640;28;20123;-47
2023/03/03 10:07:54;;;;;;;26.88;9.20;;;;;;;;;;5025922;28;20041;-46
2023/03/03 10:10:25;;;;;;;15.52;6.53;;;;;;;;;;5027526;28;20196;-47
2023/03/03 10:12:58;;;;;;;26.00;9.90;;;;;;;;;;5026994;28;20654;-50
2023/03/03 10:15:39;;;;;;;21.38;8.30;;;;;;;;;;5030883;28;20026;-47
2023/03/03 10:18:24;;;;;;;22.48;8.73;;;;;;;;;;5027076;28;20056;-50
2023/03/03 10:21:00;;;;;;;20.13;7.53;;;;;;;;;;5047175;28;20045;-46
2023/03/03 10:23:56;;;;;;;14.90;7.63;;;;;;;;;;5036918;28;20065;-48
2023/03/03 10:26:39;;;;;;;21.48;7.78;;;;;;;;;;5027552;28;20059;-46
2023/03/03 10:29:15;;;;;;;;;;;;;;;;;;5026769;28;20041;-46
2023/03/03 10:32:17;;;;;;;22.38;8.77;;;;;;;;;;5024466;28;19913;-47
2023/03/03 10:34:59;;;;;;;16.63;5.97;;;;;;;;;;5022563;28;20049;-48
2023/03/03 10:37:49;;;;;;;24.75;8.68;;;;;;;;;;5020747;28;20141;-48
2023/03/03 10:40:36;;;;;;;19.65;6.60;;;;;;;;;;5025771;28;20034;-50
2023/03/03 10:43:22;;;;;;;22.15;8.02;;;;;;;;;;5026391;28;20599;-49
2023/03/03 10:46:06;;;;;;;14.27;6.07;;;;;;;;;;5025548;28;20025;-49
2023/03/03 10:48:54;;;;;;;18.80;6.15;;;;;;;;;;5045525;28;20053;-46
2023/03/03 10:51:28;;;;;;;8.00;3.90;;;;;;;;;;5025247;28;20060;-47
2023/03/03 10:54:09;;;;;;;16.27;6.65;;;;;;;;;;5024920;28;20478;-46
2023/03/03 10:56:53;;;;;;;23.48;8.65;;;;;;;;;;5025889;28;20048;-49
2023/03/03 10:59:40;;;;;;;23.83;8.55;;;;;;;;;;5026149;28;20075;-47
2023/03/03 11:02:31;;;;;;;16.25;7.30;;;;;;;;;;5025355;28;20123;-46
2023/03/03 11:05:28;;;;;;;18.90;8.27;;;;;;;;;;5020501;28;21695;-49
2023/03/03 11:08:02;;;;;;;20.95;8.43;;;;;;;;;;5020954;28;20055;-48
2023/03/03 11:10:40;;;;;;;21.40;6.53;;;;;;;;;;5025378;28;20033;-49
2023/03/03 11:13:14;;;;;;;26.25;8.13;;;;;;;;;;5020462;28;20033;-49
2023/03/03 11:15:54;;;;;;;24.63;8.05;;;;;;;;;;5022704;28;20055;-51
2023/03/03 11:18:19;;;;;;;22.25;8.20;;;;;;;;;;5025970;28;20538;-47
2023/03/03 11:20:53;;;;;;;21.90;7.72;;;;;;;;;;5036358;28;20048;-51
2023/03/03 11:23:34;;;;;;;23.25;7.63;;;;;;;;;;5022133;28;20038;-49
2023/03/03 11:26:57;;;;;;;16.95;6.13;;;;;;;;;;5026295;28;20036;-47
2023/03/03 11:29:43;;;;;;;12.68;4.72;;;;;;;;;;4984277;28;20038;-47
2023/03/03 11:32:24;;;;;;;18.70;6.50;;;;;;;;;;4982291;28;20047;-47
2023/03/03 11:34:59;;;;;;;22.05;8.30;;;;;;;;;;5011627;28;20461;-48
2023/03/03 11:37:41;;;;;;;20.52;7.07;;;;;;;;;;5025898;28;20569;-48
2023/03/03 11:40:19;;;;;;;31.92;7.72;;;;;;;;;;5025448;28;20150;-49
2023/03/03 11:43:04;;;;;;;26.10;7.63;;;;;;;;;;5025296;28;20040;-49
2023/03/03 11:45:45;;;;;;;24.58;8.10;;;;;;;;;;5026543;28;20186;-47
2023/03/03 11:48:13;;;;;;;16.65;6.70;;;;;;;;;;5024931;28;20091;-49
2023/03/03 11:50:46;;;;;;;28.90;8.55;;;;;;;;;;5012422;28;20050;-48
2023/03/03 11:53:34;;;;;;;20.85;7.30;;;;;;;;;;5006264;28;20029;-51
2023/03/03 11:56:23;;;;;;;16.73;7.10;;;;;;;;;;5023653;28;20048;-50
2023/03/03 11:58:59;;;;;;;13.00;4.80;;;;;;;;;;5006099;28;20125;-49
2023/03/03 12:01:51;;;;;;;19.27;6.70;;;;;;;;;;5005260;28;20066;-48
2023/03/03 12:04:41;;;;;;;21.98;7.53;;;;;;;;;;5004424;28;20053;-49
2023/03/03 12:07:27;;;;;;;25.58;8.30;;;;;;;;;;5018340;28;20042;-47
2023/03/03 12:10:11;;;;;;;13.80;5.90;;;;;;;;;;5016537;28;20060;-47
2023/03/03 12:12:43;;;;;;;25.35;7.50;;;;;;;;;;5022521;28;20029;-49
2023/03/03 12:15:18;;;;;;;18.90;7.50;;;;;;;;;;5024543;28;20054;-50
2023/03/03 12:18:08;;;;;;;20.35;7.78;;;;;;;;;;5025213;28;20050;-48
2023/03/03 12:20:54;;;;;;;21.42;7.63;;;;;;;;;;5042682;28;20037;-46
2023/03/03 12:23:50;;;;;;;21.90;7.47;;;;;;;;;;5039551;28;20064;-47
2023/03/03 12:26:24;;;;;;;18.15;6.55;;;;;;;;;;4991540;28;20037;-46
2023/03/03 12:28:59;;;;;;;25.08;9.25;;;;;;;;;;5017212;28;20029;-48
2023/03/03 12:31:46;;;;;;;18.88;6.82;;;;;;;;;;5016830;28;20626;-50
2023/03/03 12:34:44;;;;;;;22.75;7.55;;;;;;;;;;5017803;28;20057;-47
2023/03/03 12:37:54;;;;;;;16.40;6.97;;;;;;;;;;4993815;28;20438;-46
2023/03/03 12:40:32;;;;;;;15.93;5.32;;;;;;;;;;4975338;28;20133;-48
2023/03/03 12:43:20;;;;;;;23.67;7.63;;;;;;;;;;5010758;28;20064;-47
2023/03/03 12:45:53;;;;;;;18.58;8.05;;;;;;;;;;5015691;28;20052;-47
2023/03/03 12:48:41;;;;;;;19.40;6.57;;;;;;;;;;5019712;28;20117;-45
2023/03/03 12:51:18;;;;;;;19.70;7.75;;;;;;;;;;5021706;28;20581;-50
2023/03/03 12:54:13;;;;;;;20.15;7.05;;;;;;;;;;5022435;28;20034;-50
2023/03/03 12:56:50;;;;;;;21.85;7.35;;;;;;;;;;5024895;28;20034;-47
2023/03/03 12:59:35;;;;;;;18.30;7.47;;;;;;;;;;5023239;28;20045;-50
2023/03/03 13:02:24;;;;;;;20.52;8.02;;;;;;;;;;5022984;28;20025;-47
2023/03/03 13:05:04;;;;;;;17.15;5.55;;;;;;;;;;4996022;28;20069;-48
2023/03/03 13:07:40;;;;;;;23.52;7.43;;;;;;;;;;5018743;28;20037;-47
2023/03/03 13:10:11;;;;;;;26.35;7.80;;;;;;;;;;5017653;28;20045;-50
2023/03/03 13:12:42;;;;;;;16.67;6.70;;;;;;;;;;5017549;28;20094;-50
2023/03/03 13:15:27;;;;;;;23.52;8.38;;;;;;;;;;5019454;28;20605;-49
2023/03/03 13:18:23;;;;;;;14.45;6.22;;;;;;;;;;5021641;28;20046;-46
2023/03/03 13:21:01;;;;;;;20.70;7.35;;;;;;;;;;5019273;28;20045;-47
2023/03/03 13:23:44;;;;;;;20.10;7.32;;;;;;;;;;5020778;28;20563;-47
2023/03/03 13:26:24;;;;;;;21.17;6.88;;;;;;;;;;5021898;28;20033;-51
2023/03/03 13:29:07;;;;;;;15.60;6.68;;;;;;;;;;5020104;28;20507;-48
2023/03/03 13:31:38;;;;;;;19.33;6.40;;;;;;;;;;5024587;28;20231;-49
2023/03/03 13:34:04;;;;;;;20.42;7.57;;;;;;;;;;5023715;28;20821;-47
2023/03/03 13:36:49;;;;;;;22.58;7.38;;;;;;;;;;5023494;28;20703;-49
2023/03/03 13:39:39;;;;;;;23.65;7.43;;;;;;;;;;5019639;28;20044;-48
2023/03/03 13:42:32;;;;;;;17.35;7.10;;;;;;;;;;5009064;28;20056;-49
2023/03/03 13:45:01;;;;;;;20.17;7.47;;;;;;;;;;5027552;28;20030;-50
2023/03/03 13:47:27;;;;;;;17.17;6.95;;;;;;;;;;5027591;28;20034;-49
2023/03/03 13:50:29;;;;;;;24.08;9.07;;;;;;;;;;5026739;28;20033;-47
2023/03/03 13:53:04;;;;;;;20.23;8.23;;;;;;;;;;5018813;28;20091;-49
2023/03/03 13:55:37;;;;;;;22.42;7.82;;;;;;;;;;5023075;28;20535;-49
2023/03/03 13:58:17;;;;;;;22.55;7.55;;;;;;;;;;5023377;28;20399;-49
2023/03/03 14:01:28;;;;;;;19.70;7.32;;;;;;;;;;5033285;28;20518;-48
2023/03/03 14:04:24;;;;;;;18.70;7.97;;;;;;;;;;4949787;28;20047;-48
2023/03/03 14:06:57;;;;;;;22.40;7.18;;;;;;;;;;5020857;28;20041;-50
2023/03/03 14:09:52;;;;;;;20.77;7.72;;;;;;;;;;5022920;28;20041;-51
2023/03/03 14:12:28;;;;;;;17.77;7.32;;;;;;;;;;5001253;28;20037;-47
2023/03/03 14:15:03;;;;;;;26.10;7.57;;;;;;;;;;5022217;28;20045;-47
2023/03/03 14:17:35;;;;;;;23.27;7.70;;;;;;;;;;5016945;28;20176;-47
2023/03/03 14:20:28;;;;;;;16.47;6.10;;;;;;;;;;5021835;28;20447;-51
2023/03/03 14:22:58;;;;;;;19.25;6.70;;;;;;;;;;5014098;28;20287;-48
2023/03/03 14:25:24;;;;;;;19.35;7.45;;;;;;;;;;5021533;28;20052;-48
2023/03/03 14:27:50;;;;;;;16.73;6.95;;;;;;;;;;5025294;28;20037;-46
2023/03/03 14:30:21;;;;;;;19.95;7.95;;;;;;;;;;5022273;28;20140;-51
2023/03/03 14:33:14;;;;;;;16.42;6.22;;;;;;;;;;5019868;28;20037;-50
2023/03/03 14:35:42;;;;;;;19.48;7.32;;;;;;;;;;5021117;28;20094;-48
2023/03/03 14:38:12;;;;;;;19.63;7.38;;;;;;;;;;5021740;28;20435;-48
2023/03/03 14:40:41;;;;;;;21.10;7.22;;;;;;;;;;5024210;28;20041;-46
2023/03/03 14:43:32;;;;;;;18.95;7.82;;;;;;;;;;5025150;28;20037;-47
2023/03/03 14:46:30;;;;;;;23.50;8.90;;;;;;;;;;5026581;28;20037;-49
2023/03/03 14:48:58;;;;;;;23.65;8.20;;;;;;;;;;5030765;28;20064;-49
2023/03/03 14:51:30;;;;;;;19.08;6.97;;;;;;;;;;5017987;28;20052;-46
2023/03/03 14:53:56;;;;;;;15.35;6.00;;;;;;;;;;5023041;28;20958;-51
2023/03/03 14:56:27;;;;;;;19.25;7.20;;;;;;;;;;5019485;28;20025;-49
2023/03/03 14:59:10;;;;;;;18.77;7.38;;;;;;;;;;5027456;28;20036;-50
2023/03/03 15:01:37;;;;;;;23.17;7.57;;;;;;;;;;5026897;28;20041;-47